createdAt,value
2018-12-18T00:01:31.735Z,96420.00
2018-12-18T00:06:42.083Z,96416.00
2018-12-18T00:09:11.126Z,96413.00
2018-12-18T00:11:40.193Z,96417.00
2018-12-18T00:14:09.435Z,96424.00
2018-12-18T00:16:38.644Z,96428.00
2018-12-18T00:19:07.813Z,96418.00
2018-12-18T00:21:36.841Z,96427.00
2018-12-18T00:24:05.988Z,96423.00
2018-12-18T00:26:35.079Z,96411.00
2018-12-18T00:29:04.200Z,96414.00
2018-12-18T00:31:35.981Z,96415.00
2018-12-18T00:36:46.291Z,96400.00
2018-12-18T00:39:15.670Z,96403.00
2018-12-18T00:41:46.520Z,96408.00
2018-12-18T00:44:15.768Z,96404.00
2018-12-18T00:46:44.992Z,96399.00
2018-12-18T00:49:14.088Z,96395.00
2018-12-18T00:51:43.163Z,96403.00
2018-12-18T00:54:12.321Z,96410.00
2018-12-18T00:56:41.367Z,96427.00
2018-12-18T00:59:10.434Z,96410.00
2018-12-18T01:04:23.297Z,96420.00
2018-12-18T01:06:54.894Z,96423.00
2018-12-18T01:09:24.102Z,96431.00
2018-12-18T01:11:53.144Z,96430.00
2018-12-18T01:14:23.024Z,96430.00
2018-12-18T01:16:53.084Z,96425.00
2018-12-18T01:19:22.960Z,96430.00
2018-12-18T01:21:53.224Z,96429.00
2018-12-18T01:24:23.192Z,96437.00
2018-12-18T01:29:32.268Z,96429.00
2018-12-18T01:32:01.753Z,96434.00
2018-12-18T01:34:30.924Z,96433.00
2018-12-18T01:39:39.110Z,96430.00
2018-12-18T01:42:08.192Z,96425.00
2018-12-18T01:44:37.614Z,96421.00
2018-12-18T01:47:06.736Z,96408.00
2018-12-18T01:49:35.742Z,96411.00
2018-12-18T01:52:04.977Z,96414.00
2018-12-18T01:54:34.036Z,96411.00
2018-12-18T01:57:03.079Z,96405.00
2018-12-18T01:59:32.149Z,96410.00
2018-12-18T02:04:40.284Z,96406.00
2018-12-18T02:07:09.434Z,96401.00
2018-12-18T02:09:38.639Z,96406.00
2018-12-18T02:12:07.880Z,96405.00
2018-12-18T02:14:36.980Z,96400.00
2018-12-18T02:17:06.068Z,96393.00
2018-12-18T02:19:35.181Z,96395.00
2018-12-18T02:22:04.308Z,96400.00
2018-12-18T02:24:33.345Z,96399.00
2018-12-18T02:27:02.392Z,96381.00
2018-12-18T02:29:31.504Z,96392.00
2018-12-18T02:32:00.724Z,96383.00
2018-12-18T02:34:29.904Z,96389.00
2018-12-18T02:36:59.080Z,96383.00
2018-12-18T02:39:28.233Z,96385.00
2018-12-18T02:41:57.312Z,96401.00
2018-12-18T02:44:26.339Z,96401.00
2018-12-18T02:49:36.047Z,96393.00
2018-12-18T02:52:05.342Z,96400.00
2018-12-18T02:54:34.395Z,96387.00
2018-12-18T02:57:03.455Z,96396.00
2018-12-18T02:59:32.516Z,96382.00
2018-12-18T03:02:01.610Z,96397.00
2018-12-18T03:04:30.749Z,96383.00
2018-12-18T03:06:59.953Z,96388.00
2018-12-18T03:09:29.072Z,96388.00
2018-12-18T03:11:58.268Z,96381.00
2018-12-18T03:14:29.573Z,96384.00
2018-12-18T03:16:58.804Z,96391.00
2018-12-18T03:19:27.867Z,96387.00
2018-12-18T03:21:56.937Z,96385.00
2018-12-18T03:24:26.081Z,96373.00
2018-12-18T03:26:55.140Z,96369.00
2018-12-18T03:29:25.416Z,96379.00
2018-12-18T03:34:39.895Z,96362.00
2018-12-18T03:37:08.979Z,96363.00
2018-12-18T03:39:38.011Z,96362.00
2018-12-18T03:42:07.196Z,96360.00
2018-12-18T03:44:36.230Z,96362.00
2018-12-18T03:47:05.260Z,96358.00
2018-12-18T03:49:34.340Z,96355.00
2018-12-18T03:52:04.376Z,96340.00
2018-12-18T03:54:33.382Z,96349.00
2018-12-18T03:57:02.484Z,96357.00
2018-12-18T03:59:33.038Z,96358.00
2018-12-18T04:02:02.072Z,96353.00
2018-12-18T04:07:10.196Z,96366.00
2018-12-18T04:09:39.284Z,96364.00
2018-12-18T04:14:52.052Z,96372.00
2018-12-18T04:17:21.102Z,96392.00
2018-12-18T04:19:50.144Z,96388.00
2018-12-18T04:22:19.352Z,96363.00
2018-12-18T04:24:48.445Z,96369.00
2018-12-18T04:27:17.778Z,96374.00
2018-12-18T04:29:46.889Z,96367.00
2018-12-18T04:32:16.035Z,96375.00
2018-12-18T04:34:45.095Z,96362.00
2018-12-18T04:37:14.272Z,96368.00
2018-12-18T04:39:43.440Z,96360.00
2018-12-18T04:42:12.525Z,96373.00
2018-12-18T04:44:41.902Z,96366.00
2018-12-18T04:49:50.076Z,96360.00
2018-12-18T04:52:19.085Z,96361.00
2018-12-18T04:54:48.156Z,96351.00
2018-12-18T04:57:18.388Z,96354.00
2018-12-18T04:59:47.464Z,96350.00
2018-12-18T05:02:16.564Z,96345.00
2018-12-18T05:07:25.520Z,96348.00
2018-12-18T05:09:54.509Z,96339.00
2018-12-18T05:12:23.645Z,96335.00
2018-12-18T05:14:52.773Z,96345.00
2018-12-18T05:20:00.931Z,96350.00
2018-12-18T05:22:30.035Z,96340.00
2018-12-18T05:24:59.064Z,96339.00
2018-12-18T05:27:28.166Z,96334.00
2018-12-18T05:29:57.251Z,96341.00
2018-12-18T05:32:26.732Z,96332.00
2018-12-18T05:34:56.818Z,96340.00
2018-12-18T05:37:26.719Z,96346.00
2018-12-18T05:39:56.731Z,96346.00
2018-12-18T05:45:06.300Z,96369.00
2018-12-18T05:50:13.610Z,96356.00
2018-12-18T05:52:42.685Z,96358.00
2018-12-18T05:57:51.049Z,96373.00
2018-12-18T06:00:20.119Z,96359.00
2018-12-18T06:02:49.224Z,96366.00
2018-12-18T06:05:18.304Z,96363.00
2018-12-18T06:07:47.471Z,96369.00
2018-12-18T06:10:17.732Z,96369.00
2018-12-18T06:12:46.756Z,96359.00
2018-12-18T06:15:15.945Z,96375.00
2018-12-18T06:17:45.031Z,96355.00
2018-12-18T06:20:14.142Z,96363.00
2018-12-18T06:22:43.208Z,96372.00
2018-12-18T06:25:12.389Z,96369.00
2018-12-18T06:27:41.490Z,96374.00
2018-12-18T06:30:10.749Z,96378.00
2018-12-18T06:32:39.841Z,96378.00
2018-12-18T06:35:10.384Z,96377.00
2018-12-18T06:37:39.815Z,96389.00
2018-12-18T06:40:09.203Z,96376.00
2018-12-18T06:42:38.339Z,96370.00
2018-12-18T06:45:07.803Z,96377.00
2018-12-18T06:47:36.848Z,96378.00
2018-12-18T06:50:06.264Z,96367.00
2018-12-18T06:52:36.462Z,96370.00
2018-12-18T06:57:43.928Z,96369.00
2018-12-18T07:00:13.646Z,96369.00
2018-12-18T07:02:42.756Z,96377.00
2018-12-18T07:05:16.685Z,96366.00
2018-12-18T07:07:43.069Z,96373.00
2018-12-18T07:10:12.348Z,96364.00
2018-12-18T07:15:20.533Z,96367.00
2018-12-18T07:17:50.860Z,96372.00
2018-12-18T07:20:19.938Z,96361.00
2018-12-18T07:22:49.026Z,96383.00
2018-12-18T07:25:19.251Z,96377.00
2018-12-18T07:27:48.285Z,96390.00
2018-12-18T07:30:17.828Z,96372.00
2018-12-18T07:32:46.940Z,96378.00
2018-12-18T07:35:16.051Z,96379.00
2018-12-18T07:37:45.228Z,96371.00
2018-12-18T07:40:14.332Z,96376.00
2018-12-18T07:42:43.379Z,96371.00
2018-12-18T07:45:12.443Z,96370.00
2018-12-18T07:50:19.616Z,96376.00
2018-12-18T07:52:48.768Z,96376.00
2018-12-18T07:55:19.000Z,96365.00
2018-12-18T07:57:48.214Z,96382.00
2018-12-18T08:00:18.243Z,96368.00
2018-12-18T08:02:47.394Z,96368.00
2018-12-18T08:05:16.620Z,96393.00
2018-12-18T08:07:45.648Z,96382.00
2018-12-18T08:10:14.821Z,96393.00
2018-12-18T08:12:43.900Z,96387.00
2018-12-18T08:15:12.919Z,96384.00
2018-12-18T08:17:41.893Z,96383.00
2018-12-18T08:20:11.127Z,96371.00
2018-12-18T08:22:40.452Z,96377.00
2018-12-18T08:25:09.280Z,96380.00
2018-12-18T08:27:38.377Z,96362.00
2018-12-18T08:30:08.860Z,96371.00
2018-12-18T08:32:37.924Z,96369.00
2018-12-18T08:35:07.315Z,96367.00
2018-12-18T08:37:37.585Z,96360.00
2018-12-18T08:40:07.955Z,96353.00
2018-12-18T08:42:39.226Z,96348.00
2018-12-18T08:45:09.663Z,96354.00
2018-12-18T08:50:17.368Z,96340.00
2018-12-18T08:52:46.430Z,96345.00
2018-12-18T08:55:15.735Z,96345.00
2018-12-18T08:57:44.835Z,96338.00
2018-12-18T09:00:14.036Z,96343.00
2018-12-18T09:02:44.772Z,96339.00
2018-12-18T09:05:13.964Z,96325.00
2018-12-18T09:07:43.119Z,96333.00
2018-12-18T09:10:12.225Z,96333.00
2018-12-18T09:12:41.325Z,96332.00
2018-12-18T09:15:16.057Z,96311.00
2018-12-18T09:17:46.450Z,96322.00
2018-12-18T09:20:16.116Z,96310.00
2018-12-18T09:22:45.298Z,96308.00
2018-12-18T09:25:14.438Z,96305.00
2018-12-18T09:27:43.532Z,96299.00
2018-12-18T09:30:12.737Z,96299.00
2018-12-18T09:32:41.792Z,96297.00
2018-12-18T09:35:10.799Z,96289.00
2018-12-18T09:40:33.312Z,96289.00
2018-12-18T09:43:07.708Z,96285.00
2018-12-18T09:45:36.892Z,96296.00
2018-12-18T09:48:06.053Z,96290.00
2018-12-18T09:50:35.083Z,96271.00
2018-12-18T09:53:04.433Z,96269.00
2018-12-18T09:55:33.540Z,96268.00
2018-12-18T10:00:43.687Z,96278.00
2018-12-18T10:03:12.794Z,96267.00
2018-12-18T10:05:41.860Z,96263.00
2018-12-18T10:08:11.032Z,96259.00
2018-12-18T10:10:40.106Z,96253.00
2018-12-18T10:13:09.145Z,96265.00
2018-12-18T10:15:38.320Z,96253.00
2018-12-18T10:18:07.384Z,96248.00
2018-12-18T10:20:36.501Z,96248.00
2018-12-18T10:23:05.603Z,96243.00
2018-12-18T10:25:34.752Z,96235.00
2018-12-18T10:28:04.032Z,96239.00
2018-12-18T10:30:33.071Z,96238.00
2018-12-18T10:33:02.398Z,96236.00
2018-12-18T10:35:36.496Z,96232.00
2018-12-18T10:41:02.820Z,96221.00
2018-12-18T10:46:11.192Z,96209.00
2018-12-18T10:48:40.205Z,96213.00
2018-12-18T10:51:09.548Z,96202.00
2018-12-18T10:53:38.713Z,96208.00
2018-12-18T10:56:07.772Z,96203.00
2018-12-18T11:01:21.400Z,96202.00
2018-12-18T11:03:50.551Z,96198.00
2018-12-18T11:06:20.964Z,96204.00
2018-12-18T11:08:50.161Z,96198.00
2018-12-18T11:11:19.308Z,96193.00
2018-12-18T11:13:49.530Z,96205.00
2018-12-18T11:16:18.780Z,96180.00
2018-12-18T11:18:47.981Z,96188.00
2018-12-18T11:21:18.016Z,96182.00
2018-12-18T11:23:47.248Z,96175.00
2018-12-18T11:26:16.656Z,96176.00
2018-12-18T11:28:45.802Z,96173.00
2018-12-18T11:33:54.224Z,96170.00
2018-12-18T11:36:23.530Z,96161.00
2018-12-18T11:41:33.463Z,96133.00
2018-12-18T11:44:02.903Z,96132.00
2018-12-18T11:46:32.773Z,96124.00
2018-12-18T11:49:03.038Z,96117.00
2018-12-18T11:51:32.880Z,96123.00
2018-12-18T11:56:41.264Z,96113.00
2018-12-18T11:59:10.516Z,96115.00
2018-12-18T12:01:39.845Z,96105.00
2018-12-18T12:04:08.986Z,96097.00
2018-12-18T12:06:38.173Z,96097.00
2018-12-18T12:09:08.072Z,96093.00
2018-12-18T12:11:37.244Z,96086.00
2018-12-18T12:14:06.449Z,96092.00
2018-12-18T12:16:35.726Z,96079.00
2018-12-18T12:19:04.882Z,96072.00
2018-12-18T12:21:34.101Z,96078.00
2018-12-18T12:24:04.456Z,96066.00
2018-12-18T12:26:34.273Z,96052.00
2018-12-18T12:29:03.640Z,96049.00
2018-12-18T12:34:12.188Z,96052.00
2018-12-18T12:36:41.379Z,96055.00
2018-12-18T12:39:10.681Z,96048.00
2018-12-18T12:41:39.822Z,96048.00
2018-12-18T12:44:08.985Z,96053.00
2018-12-18T12:46:38.127Z,96056.00
2018-12-18T12:51:57.321Z,96045.00
2018-12-18T12:54:26.356Z,96038.00
2018-12-18T12:56:56.176Z,96032.00
2018-12-18T12:59:25.427Z,96026.00
2018-12-18T13:01:54.626Z,96024.00
2018-12-18T13:04:23.959Z,96013.00
2018-12-18T13:06:53.106Z,96020.00
2018-12-18T13:09:22.340Z,96012.00
2018-12-18T13:11:51.624Z,96006.00
2018-12-18T13:14:20.724Z,95996.00
2018-12-18T13:16:49.810Z,96002.00
2018-12-18T13:19:20.093Z,96011.00
2018-12-18T13:21:49.181Z,96005.00
2018-12-18T13:24:18.288Z,95998.00
2018-12-18T13:26:47.502Z,95993.00
2018-12-18T13:29:16.944Z,95989.00
2018-12-18T13:31:46.456Z,95986.00
2018-12-18T13:34:15.705Z,95983.00
2018-12-18T13:36:44.813Z,95986.00
2018-12-18T13:39:15.118Z,95994.00
2018-12-18T13:41:44.410Z,95979.00
2018-12-18T13:44:13.530Z,95963.00
2018-12-18T13:46:42.653Z,95963.00
2018-12-18T13:49:13.018Z,95957.00
2018-12-18T13:51:42.260Z,95943.00
2018-12-18T13:54:11.317Z,95947.00
2018-12-18T13:59:20.154Z,95937.00
2018-12-18T14:04:28.390Z,95922.00
2018-12-18T14:06:57.518Z,95918.00
2018-12-18T14:09:26.701Z,95914.00
2018-12-18T14:11:55.819Z,95922.00
2018-12-18T14:14:24.985Z,95915.00
2018-12-18T14:16:54.288Z,95923.00
2018-12-18T14:19:23.428Z,95927.00
2018-12-18T14:24:31.968Z,95917.00
2018-12-18T14:27:01.149Z,95908.00
2018-12-18T14:29:30.340Z,95903.00
2018-12-18T14:31:59.489Z,95886.00
2018-12-18T14:34:28.716Z,95909.00
2018-12-18T14:36:57.904Z,95901.00
2018-12-18T14:42:06.356Z,95884.00
2018-12-18T14:44:35.758Z,95884.00
2018-12-18T14:47:06.121Z,95887.00
2018-12-18T14:49:35.954Z,95889.00
2018-12-18T14:52:06.008Z,95883.00
2018-12-18T14:54:36.205Z,95883.00
2018-12-18T14:57:06.083Z,95883.00
2018-12-18T14:59:36.316Z,95870.00
2018-12-18T15:02:05.529Z,95868.00
2018-12-18T15:04:34.936Z,95867.00
2018-12-18T15:07:04.218Z,95865.00
2018-12-18T15:09:33.364Z,95868.00
2018-12-18T15:12:02.425Z,95882.00
2018-12-18T15:14:31.532Z,95855.00
2018-12-18T15:19:40.971Z,95853.00
2018-12-18T15:22:10.331Z,95858.00
2018-12-18T15:24:39.513Z,95848.00
2018-12-18T15:27:08.730Z,95856.00
2018-12-18T15:29:38.173Z,95848.00
2018-12-18T15:32:08.244Z,95846.00
2018-12-18T15:34:38.414Z,95846.00
2018-12-18T15:37:09.733Z,95847.00
2018-12-18T15:39:39.097Z,95843.00
2018-12-18T15:42:08.404Z,95842.00
2018-12-18T15:44:37.486Z,95848.00
2018-12-18T15:47:06.696Z,95848.00
2018-12-18T15:49:37.165Z,95833.00
2018-12-18T15:52:06.353Z,95847.00
2018-12-18T15:54:35.456Z,95845.00
2018-12-18T15:57:04.633Z,95839.00
2018-12-18T15:59:33.834Z,95828.00
2018-12-18T16:04:41.071Z,95829.00
2018-12-18T16:07:15.957Z,95836.00
2018-12-18T16:09:41.316Z,95836.00
2018-12-18T16:12:10.473Z,95834.00
2018-12-18T16:14:39.704Z,95830.00
2018-12-18T16:17:08.804Z,95832.00
2018-12-18T16:19:37.847Z,95827.00
2018-12-18T16:24:46.258Z,95815.00
2018-12-18T16:27:15.417Z,95826.00
2018-12-18T16:29:44.577Z,95819.00
2018-12-18T16:32:13.755Z,95823.00
2018-12-18T16:34:42.948Z,95835.00
2018-12-18T16:37:12.080Z,95832.00
2018-12-18T16:39:41.196Z,95827.00
2018-12-18T16:44:49.011Z,95831.00
2018-12-18T16:47:19.260Z,95841.00
2018-12-18T16:52:26.213Z,95842.00
2018-12-18T16:54:55.373Z,95838.00
2018-12-18T16:57:24.529Z,95838.00
2018-12-18T16:59:53.697Z,95836.00
2018-12-18T17:02:23.132Z,95836.00
2018-12-18T17:04:52.312Z,95842.00
2018-12-18T17:07:21.571Z,95842.00
2018-12-18T17:09:50.784Z,95836.00
2018-12-18T17:12:19.940Z,95841.00
2018-12-18T17:14:49.132Z,95847.00
2018-12-18T17:17:18.233Z,95850.00
2018-12-18T17:19:48.954Z,95832.00
2018-12-18T17:22:18.196Z,95837.00
2018-12-18T17:24:47.305Z,95842.00
2018-12-18T17:27:16.437Z,95848.00
2018-12-18T17:29:45.568Z,95837.00
2018-12-18T17:32:14.617Z,95816.00
2018-12-18T17:34:43.692Z,95840.00
2018-12-18T17:37:12.912Z,95827.00
2018-12-18T17:39:42.047Z,95826.00
2018-12-18T17:42:11.145Z,95828.00
2018-12-18T17:44:41.106Z,95820.00
2018-12-18T17:47:10.497Z,95822.00
2018-12-18T17:52:18.408Z,95826.00
2018-12-18T17:54:47.546Z,95830.00
2018-12-18T17:57:18.941Z,95824.00
2018-12-18T18:02:27.321Z,95829.00
2018-12-18T18:07:35.209Z,95840.00
2018-12-18T18:10:05.169Z,95833.00
2018-12-18T18:12:34.944Z,95822.00
2018-12-18T18:15:05.504Z,95829.00
2018-12-18T18:17:35.027Z,95834.00
2018-12-18T18:22:45.009Z,95837.00
2018-12-18T18:27:54.800Z,95823.00
2018-12-18T18:30:23.844Z,95809.00
2018-12-18T18:35:32.237Z,95830.00
2018-12-18T18:38:01.427Z,95827.00
2018-12-18T18:43:09.768Z,95828.00
2018-12-18T18:45:39.109Z,95811.00
2018-12-18T18:48:08.232Z,95826.00
2018-12-18T18:50:37.352Z,95807.00
2018-12-18T18:53:07.796Z,95804.00
2018-12-18T18:58:15.233Z,95791.00
2018-12-18T19:00:44.381Z,95789.00
2018-12-18T19:03:13.480Z,95805.00
2018-12-18T19:05:42.713Z,95795.00
2018-12-18T19:08:11.888Z,95802.00
2018-12-18T19:13:21.247Z,95795.00
2018-12-18T19:15:50.355Z,95787.00
2018-12-18T19:18:20.541Z,95775.00
2018-12-18T19:20:49.646Z,95771.00
2018-12-18T19:23:18.756Z,95759.00
2018-12-18T19:25:47.954Z,95761.00
2018-12-18T19:28:17.844Z,95757.00
2018-12-18T19:30:46.976Z,95759.00
2018-12-18T19:33:16.032Z,95767.00
2018-12-18T19:35:45.093Z,95754.00
2018-12-18T19:38:14.156Z,95771.00
2018-12-18T19:40:43.301Z,95759.00
2018-12-18T19:45:51.600Z,95744.00
2018-12-18T19:50:58.857Z,95747.00
2018-12-18T19:56:07.162Z,95748.00
2018-12-18T19:58:36.876Z,95724.00
2018-12-18T20:01:06.635Z,95711.00
2018-12-18T20:03:36.745Z,95722.00
2018-12-18T20:06:06.879Z,95728.00
2018-12-18T20:08:36.816Z,95722.00
2018-12-18T20:11:06.952Z,95708.00
2018-12-18T20:13:36.994Z,95726.00
2018-12-18T20:18:46.084Z,95735.00
2018-12-18T20:23:53.248Z,95710.00
2018-12-18T20:26:22.563Z,95718.00
2018-12-18T20:28:51.783Z,95724.00
2018-12-18T20:31:21.191Z,95728.00
2018-12-18T20:33:50.324Z,95725.00
2018-12-18T20:36:19.436Z,95732.00
2018-12-18T20:41:27.689Z,95733.00
2018-12-18T20:43:56.807Z,95738.00
2018-12-18T20:46:26.019Z,95726.00
2018-12-18T20:48:55.187Z,95731.00
2018-12-18T20:51:25.273Z,95731.00
2018-12-18T20:53:54.388Z,95724.00
2018-12-18T20:59:02.250Z,95708.00
2018-12-18T21:01:31.361Z,95706.00
2018-12-18T21:04:00.640Z,95722.00
2018-12-18T21:09:13.100Z,95719.00
2018-12-18T21:11:42.317Z,95726.00
2018-12-18T21:14:11.659Z,95730.00
2018-12-18T21:16:41.008Z,95721.00
2018-12-18T21:19:10.471Z,95706.00
2018-12-18T21:24:19.848Z,95715.00
2018-12-18T21:26:50.995Z,95704.00
2018-12-18T21:29:20.548Z,95703.00
2018-12-18T21:31:49.939Z,95701.00
2018-12-18T21:34:20.428Z,95705.00
2018-12-18T21:36:49.752Z,95709.00
2018-12-18T21:39:19.096Z,95695.00
2018-12-18T21:41:48.428Z,95693.00
2018-12-18T21:44:18.140Z,95690.00
2018-12-18T21:46:47.942Z,95673.00
2018-12-18T21:49:18.564Z,95653.00
2018-12-18T21:54:27.850Z,95653.00
2018-12-18T21:56:57.212Z,95674.00
2018-12-18T21:59:26.513Z,95670.00
2018-12-18T22:01:56.052Z,95684.00
2018-12-18T22:04:25.965Z,95690.00
2018-12-18T22:06:55.275Z,95684.00
2018-12-18T22:09:24.592Z,95686.00
2018-12-18T22:11:55.659Z,95676.00
2018-12-18T22:17:04.349Z,95663.00
2018-12-18T22:19:33.672Z,95637.00
2018-12-18T22:22:03.152Z,95636.00
2018-12-18T22:24:32.512Z,95613.00
2018-12-18T22:27:01.722Z,95619.00
2018-12-18T22:29:30.988Z,95596.00
2018-12-18T22:32:00.133Z,95579.00
2018-12-18T22:34:29.348Z,95589.00
2018-12-18T22:39:39.207Z,95593.00
2018-12-18T22:42:10.509Z,95577.00
2018-12-18T22:44:39.686Z,95579.00
2018-12-18T22:47:09.786Z,95573.00
2018-12-18T22:52:18.293Z,95574.00
2018-12-18T22:54:47.418Z,95555.00
2018-12-18T22:57:16.529Z,95567.00
2018-12-18T22:59:45.711Z,95556.00
2018-12-18T23:04:57.164Z,95547.00
2018-12-18T23:07:26.324Z,95556.00
2018-12-18T23:09:55.456Z,95542.00
2018-12-18T23:12:24.638Z,95520.00
2018-12-18T23:14:54.483Z,95544.00
2018-12-18T23:17:23.556Z,95546.00
2018-12-18T23:19:52.641Z,95551.00
2018-12-18T23:25:00.956Z,95560.00
2018-12-18T23:27:30.124Z,95572.00
2018-12-18T23:29:59.238Z,95559.00
2018-12-18T23:32:28.332Z,95548.00
2018-12-18T23:34:57.445Z,95548.00
2018-12-18T23:37:26.724Z,95548.00
2018-12-18T23:39:55.812Z,95530.00
2018-12-18T23:42:25.078Z,95542.00
2018-12-18T23:44:54.303Z,95533.00
2018-12-18T23:50:01.064Z,95528.00
2018-12-18T23:52:30.477Z,95540.00
2018-12-18T23:57:39.240Z,95526.00
